Time;durP1;ratioP1;P1;durP2;ratioP2;P2;SDS_P1;SDS_P2;PMS_P1;PMS_P2;Temp;Humidity;BMP_temperature;BMP_pressure;BME280_temperature;BME280_humidity;BME280_pressure;Samples;Min_cycle;Max_cycle;Signal;HPM_P1;HPM_P2
2023/09/24 00:01:22;;;;;;;11.63;3.03;;;11.40;99.90;;;;;;7303823;19;20210;-88
2023/09/24 00:03:49;;;;;;;7.97;2.57;;;11.30;99.90;;;;;;7298699;19;20194;-88
2023/09/24 00:06:18;;;;;;;9.37;3.03;;;11.40;99.90;;;;;;7308908;19;21085;-88
2023/09/24 00:08:48;;;;;;;8.93;2.93;;;11.30;99.90;;;;;;7303756;19;20250;-88
2023/09/24 00:11:15;;;;;;;8.50;2.97;;;11.10;99.90;;;;;;7304472;19;20205;-88
2023/09/24 00:13:42;;;;;;;7.27;3.13;;;11.20;99.90;;;;;;7304968;19;20228;-87
2023/09/24 00:16:12;;;;;;;10.63;3.37;;;11.10;99.90;;;;;;7296131;19;20185;-88
2023/09/24 00:18:38;;;;;;;7.77;2.90;;;11.10;99.90;;;;;;7293624;19;20214;-88
2023/09/24 00:21:06;;;;;;;10.57;3.10;;;11.10;99.90;;;;;;7292011;19;20204;-88
2023/09/24 00:23:33;;;;;;;11.70;3.17;;;11.10;99.90;;;;;;7292213;19;20190;-88
2023/09/24 00:26:11;;;;;;;8.27;2.67;;;11.10;99.90;;;;;;7292873;19;20197;-88
2023/09/24 00:28:44;;;;;;;10.10;2.87;;;11.00;99.90;;;;;;7292951;19;20213;-88
2023/09/24 00:31:10;;;;;;;12.47;3.27;;;11.10;99.90;;;;;;7291905;19;20258;-88
2023/09/24 00:33:37;;;;;;;8.23;2.83;;;11.10;99.90;;;;;;7293185;19;20199;-89
2023/09/24 00:36:04;;;;;;;11.40;3.20;;;11.10;99.90;;;;;;7292499;19;20189;-88
2023/09/24 00:38:33;;;;;;;11.40;3.23;;;11.10;99.90;;;;;;7292736;19;20644;-88
2023/09/24 00:41:01;;;;;;;9.23;3.53;;;11.00;99.90;;;;;;7292983;19;20196;-88
2023/09/24 00:43:32;;;;;;;6.47;2.90;;;11.00;99.90;;;;;;7289520;19;20203;-89
2023/09/24 00:46:09;;;;;;;8.33;3.30;;;10.90;99.90;;;;;;7293136;19;20197;-88
2023/09/24 00:48:37;;;;;;;9.00;3.17;;;10.90;99.90;;;;;;7290714;19;20188;-90
2023/09/24 00:51:43;;;;;;;7.70;3.23;;;10.90;99.90;;;;;;7301405;19;20197;-87
2023/09/24 00:54:14;;;;;;;9.43;3.10;;;10.90;99.90;;;;;;7196978;19;2004484;-88
2023/09/24 00:56:58;;;;;;;10.37;3.47;;;10.90;99.90;;;;;;7295286;19;20199;-87
2023/09/24 00:59:30;;;;;;;9.13;3.50;;;10.90;99.90;;;;;;7274096;19;20190;-87
2023/09/24 01:01:57;;;;;;;8.97;3.50;;;10.80;99.90;;;;;;7291419;19;20268;-87
2023/09/24 01:04:23;;;;;;;8.37;3.30;;;10.70;99.90;;;;;;7311198;19;20280;-88
2023/09/24 01:06:49;;;;;;;13.50;3.60;;;10.70;99.90;;;;;;7305081;19;20206;-88
2023/09/24 01:09:21;;;;;;;10.23;3.33;;;10.80;99.90;;;;;;7291342;19;20200;-88
2023/09/24 01:11:53;;;;;;;10.83;3.50;;;10.80;99.90;;;;;;7289736;19;20212;-87
2023/09/24 01:14:31;;;;;;;10.73;3.80;;;10.80;99.90;;;;;;7291635;19;20193;-88
2023/09/24 01:16:57;;;;;;;12.00;4.00;;;10.70;99.90;;;;;;7289563;19;20189;-88
2023/09/24 01:19:23;;;;;;;9.23;3.50;;;10.80;99.90;;;;;;7303378;19;20224;-89
2023/09/24 01:21:53;;;;;;;9.33;3.50;;;10.90;99.90;;;;;;7309346;19;20198;-88
2023/09/24 01:24:30;;;;;;;10.00;3.63;;;11.10;99.90;;;;;;7269520;19;20192;-88
2023/09/24 01:26:57;;;;;;;11.17;4.00;;;11.00;99.90;;;;;;7289563;19;20197;-89
2023/09/24 01:29:32;;;;;;;10.13;3.37;;;11.00;99.90;;;;;;7308793;19;20188;-87
2023/09/24 01:32:12;;;;;;;11.30;4.03;;;10.90;99.90;;;;;;7295631;19;20234;-89
2023/09/24 01:34:45;;;;;;;8.87;3.43;;;10.80;99.90;;;;;;7296885;19;20319;-89
2023/09/24 01:37:33;;;;;;;;;;;;;;;;;;;;;
2023/09/24 01:40:55;;;;;;;8.80;3.27;;;10.80;99.90;;;;;;7192142;19;2004564;-89
2023/09/24 01:43:10;;;;;;;11.63;3.87;;;10.70;99.90;;;;;;7190875;19;2004461;-89
2023/09/24 01:45:42;;;;;;;12.83;3.80;;;10.80;99.90;;;;;;7291561;19;20200;-88
2023/09/24 01:48:09;;;;;;;12.40;4.00;;;10.70;99.90;;;;;;7290457;19;20268;-89
2023/09/24 01:50:38;;;;;;;11.67;3.70;;;10.80;99.90;;;;;;7292655;19;20188;-89
2023/09/24 01:53:05;;;;;;;13.57;3.63;;;10.70;99.90;;;;;;7289629;19;20193;-89
2023/09/24 01:55:31;;;;;;;10.17;3.43;;;10.70;99.90;;;;;;7288410;19;20181;-88
2023/09/24 01:57:59;;;;;;;11.97;3.80;;;10.70;99.90;;;;;;7289432;19;20217;-89
2023/09/24 02:00:39;;;;;;;12.50;3.23;;;10.60;99.90;;;;;;7291453;19;20260;-88
2023/09/24 02:03:11;;;;;;;7.70;3.40;;;10.70;99.90;;;;;;7288179;19;20311;-88
2023/09/24 02:05:39;;;;;;;10.63;3.27;;;10.70;99.90;;;;;;7291542;19;20590;-88
2023/09/24 02:08:10;;;;;;;12.10;3.33;;;10.60;99.90;;;;;;7289953;19;20193;-88
2023/09/24 02:10:40;;;;;;;10.40;3.60;;;10.70;99.90;;;;;;7288082;19;20193;-88
2023/09/24 02:13:07;;;;;;;11.13;3.77;;;10.80;99.90;;;;;;7290207;19;20190;-88
2023/09/24 02:15:38;;;;;;;13.37;3.73;;;10.80;99.90;;;;;;7291047;19;20197;-88
2023/09/24 02:18:09;;;;;;;8.93;3.40;;;10.80;99.90;;;;;;7292746;19;20192;-88
2023/09/24 02:20:36;;;;;;;9.40;3.40;;;10.80;99.90;;;;;;7294771;19;20262;-89
2023/09/24 02:23:10;;;;;;;13.50;3.50;;;10.70;99.90;;;;;;7298373;19;20182;-88
2023/09/24 02:25:37;;;;;;;8.17;3.07;;;10.80;99.90;;;;;;7297758;19;20203;-87
2023/09/24 02:28:17;;;;;;;10.07;3.00;;;10.80;99.90;;;;;;7311103;19;20187;-88
2023/09/24 02:30:48;;;;;;;9.07;3.10;;;10.80;99.90;;;;;;7303332;19;20201;-88
2023/09/24 02:33:18;;;;;;;15.27;3.40;;;10.80;99.90;;;;;;7308741;19;20196;-88
2023/09/24 02:35:44;;;;;;;11.20;3.53;;;11.00;99.90;;;;;;7308769;19;20177;-89
2023/09/24 02:38:10;;;;;;;9.47;3.20;;;11.00;99.90;;;;;;7301434;19;20207;-88
2023/09/24 02:40:38;;;;;;;11.47;3.30;;;11.00;99.90;;;;;;7300531;19;20188;-88
2023/09/24 02:43:04;;;;;;;10.97;3.50;;;10.90;99.90;;;;;;7302816;19;20195;-89
2023/09/24 02:45:40;;;;;;;11.67;3.47;;;10.90;99.90;;;;;;7302797;19;20206;-89
2023/09/24 02:48:17;;;;;;;9.43;3.37;;;10.90;99.90;;;;;;7304368;19;20194;-89
2023/09/24 02:50:45;;;;;;;10.37;3.33;;;10.90;99.90;;;;;;7301814;19;20186;-89
2023/09/24 02:53:16;;;;;;;12.70;3.00;;;10.90;99.90;;;;;;7303782;19;20194;-89
2023/09/24 02:55:53;;;;;;;14.80;3.63;;;10.90;99.90;;;;;;7300450;19;20197;-89
2023/09/24 02:58:19;;;;;;;7.23;2.80;;;10.80;99.90;;;;;;7305585;19;20189;-89
2023/09/24 03:00:51;;;;;;;9.43;3.40;;;10.90;99.90;;;;;;7304093;19;20706;-88
2023/09/24 03:03:18;;;;;;;10.70;3.23;;;10.90;99.90;;;;;;7303490;19;20190;-89
2023/09/24 03:05:44;;;;;;;7.90;3.10;;;10.90;99.90;;;;;;7304363;19;20720;-89
2023/09/24 03:08:23;;;;;;;9.80;3.23;;;10.90;99.90;;;;;;7305738;19;20197;-90
2023/09/24 03:10:53;;;;;;;11.17;3.13;;;10.90;99.90;;;;;;7299863;19;20310;-89
2023/09/24 03:13:23;;;;;;;15.57;3.20;;;10.80;99.90;;;;;;7303208;19;20215;-89
2023/09/24 03:15:55;;;;;;;9.53;2.73;;;10.80;99.90;;;;;;7301975;19;20193;-89
2023/09/24 03:18:21;;;;;;;10.03;3.10;;;10.90;99.90;;;;;;7305082;19;20657;-88
2023/09/24 03:20:46;;;;;;;13.90;2.97;;;10.90;99.90;;;;;;7300082;19;20210;-89
2023/09/24 03:23:21;;;;;;;10.47;2.90;;;10.90;99.90;;;;;;7301408;19;20198;-89
2023/09/24 03:25:46;;;;;;;8.17;2.77;;;10.90;99.90;;;;;;7303888;19;20197;-88
2023/09/24 03:28:15;;;;;;;11.87;3.07;;;10.90;99.90;;;;;;7316118;19;20214;-89
2023/09/24 03:30:42;;;;;;;8.47;2.77;;;10.90;99.90;;;;;;7320453;19;20198;-88
2023/09/24 03:33:18;;;;;;;6.40;2.60;;;10.80;99.90;;;;;;7321632;19;20202;-89
2023/09/24 03:35:49;;;;;;;10.50;3.20;;;10.80;99.90;;;;;;7321692;19;20266;-88
2023/09/24 03:38:15;;;;;;;8.53;3.00;;;10.80;99.90;;;;;;7315185;19;20197;-87
2023/09/24 03:40:44;;;;;;;8.27;2.77;;;10.80;99.90;;;;;;7317135;19;20226;-88
2023/09/24 03:43:10;;;;;;;8.43;2.97;;;10.60;99.90;;;;;;7298792;19;20193;-88
2023/09/24 03:45:39;;;;;;;9.37;2.70;;;10.50;99.90;;;;;;7293193;19;20258;-88
2023/09/24 03:48:05;;;;;;;10.53;3.37;;;10.40;99.90;;;;;;7294503;19;20207;-88
2023/09/24 03:50:32;;;;;;;8.47;2.80;;;10.40;99.90;;;;;;7297561;19;20200;-89
2023/09/24 03:52:59;;;;;;;10.50;3.10;;;10.50;99.90;;;;;;7294479;19;20189;-89
2023/09/24 03:55:25;;;;;;;8.37;3.13;;;10.70;99.90;;;;;;7295535;19;20189;-88
2023/09/24 03:57:57;;;;;;;14.40;2.80;;;10.70;99.90;;;;;;7316627;19;20214;-88
2023/09/24 04:00:25;;;;;;;8.00;2.87;;;10.80;99.90;;;;;;7297253;19;20212;-89
2023/09/24 04:02:51;;;;;;;9.10;2.80;;;10.80;99.90;;;;;;7317502;19;20189;-89
2023/09/24 04:05:23;;;;;;;9.60;3.43;;;10.80;99.90;;;;;;7299336;19;20235;-89
2023/09/24 04:07:51;;;;;;;11.43;3.00;;;10.80;99.90;;;;;;7299030;19;20226;-89
2023/09/24 04:10:27;;;;;;;9.17;3.10;;;10.80;99.90;;;;;;7296047;19;20193;-89
2023/09/24 04:12:59;;;;;;;14.20;3.53;;;10.70;99.90;;;;;;7301629;19;20709;-89
2023/09/24 04:15:29;;;;;;;14.80;2.90;;;10.50;99.90;;;;;;7275355;19;20659;-89
2023/09/24 04:17:59;;;;;;;7.83;3.00;;;10.40;99.90;;;;;;7298403;19;20277;-89
2023/09/24 04:20:35;;;;;;;9.23;2.57;;;10.40;99.90;;;;;;7302148;19;20200;-88
2023/09/24 04:23:05;;;;;;;10.97;2.83;;;10.50;99.90;;;;;;7296897;19;20193;-90
2023/09/24 04:25:37;;;;;;;12.90;2.90;;;10.50;99.90;;;;;;7299092;19;20191;-89
2023/09/24 04:28:13;;;;;;;8.60;2.77;;;10.60;99.90;;;;;;7295602;19;20230;-89
2023/09/24 04:30:46;;;;;;;9.37;3.03;;;10.40;99.90;;;;;;7293597;19;20213;-90
2023/09/24 04:33:13;;;;;;;6.10;2.77;;;10.30;99.90;;;;;;7293132;19;20223;-89
2023/09/24 04:35:42;;;;;;;7.10;2.70;;;10.20;99.90;;;;;;7291211;19;20180;-89
2023/09/24 04:38:10;;;;;;;6.70;2.50;;;10.10;99.90;;;;;;7291849;19;20200;-90
2023/09/24 04:40:36;;;;;;;9.33;2.80;;;10.20;99.90;;;;;;7293570;19;20192;-89
2023/09/24 04:43:08;;;;;;;8.50;2.63;;;10.30;99.90;;;;;;7290216;19;20192;-89
2023/09/24 04:45:44;;;;;;;11.23;3.20;;;10.40;99.90;;;;;;7292412;19;20248;-89
2023/09/24 04:48:15;;;;;;;10.27;3.13;;;10.40;99.90;;;;;;7301540;19;20192;-89
2023/09/24 04:50:42;;;;;;;7.60;2.73;;;10.50;99.90;;;;;;7302990;19;20233;-88
2023/09/24 04:53:09;;;;;;;10.90;2.90;;;10.50;99.90;;;;;;7299988;19;20193;-88
2023/09/24 04:55:37;;;;;;;11.03;3.33;;;10.40;99.90;;;;;;7290321;19;20208;-89
2023/09/24 04:58:03;;;;;;;15.83;3.20;;;10.40;99.90;;;;;;7293069;19;20280;-89
2023/09/24 05:00:32;;;;;;;15.10;3.67;;;10.40;99.90;;;;;;7292569;19;20224;-88
2023/09/24 05:03:00;;;;;;;12.93;3.27;;;10.50;99.90;;;;;;7291824;19;20200;-88
2023/09/24 05:05:29;;;;;;;10.93;3.33;;;10.60;99.90;;;;;;7291861;19;20192;-88
2023/09/24 05:08:16;;;;;;;10.80;2.97;;;10.70;99.90;;;;;;7293614;19;20190;-88
2023/09/24 05:10:44;;;;;;;11.03;3.10;;;10.70;99.90;;;;;;7291264;19;20185;-88
2023/09/24 05:13:12;;;;;;;12.83;3.23;;;10.80;99.90;;;;;;7292664;19;20193;-88
2023/09/24 05:16:10;;;;;;;7.47;3.07;;;10.60;99.90;;;;;;7292514;19;20197;-89
2023/09/24 05:18:39;;;;;;;8.93;2.80;;;10.60;99.90;;;;;;7191749;19;2004701;-88
2023/09/24 05:21:18;;;;;;;8.17;2.80;;;10.70;99.90;;;;;;7292589;19;20504;-88
2023/09/24 05:23:48;;;;;;;11.27;3.27;;;10.80;99.90;;;;;;7293138;19;20720;-87
2023/09/24 05:26:21;;;;;;;12.00;3.03;;;10.90;99.90;;;;;;7290345;19;20207;-87
2023/09/24 05:28:48;;;;;;;11.57;2.80;;;10.80;99.90;;;;;;7292176;19;20197;-86
2023/09/24 05:31:18;;;;;;;11.40;2.70;;;10.80;99.90;;;;;;7292222;19;20202;-87
2023/09/24 05:33:49;;;;;;;9.50;3.10;;;10.80;99.90;;;;;;7290075;19;20720;-87
2023/09/24 05:36:17;;;;;;;10.70;3.03;;;10.60;99.90;;;;;;7287795;19;20182;-88
2023/09/24 05:38:46;;;;;;;7.40;3.27;;;10.60;99.90;;;;;;7288721;19;20205;-87
2023/09/24 05:41:12;;;;;;;13.37;3.17;;;10.70;99.90;;;;;;7286727;19;20181;-88
2023/09/24 05:43:45;;;;;;;11.27;3.27;;;10.80;99.90;;;;;;7289393;19;20223;-88
2023/09/24 05:46:23;;;;;;;10.73;3.30;;;10.90;99.90;;;;;;7292069;19;20253;-87
2023/09/24 05:48:49;;;;;;;10.07;2.93;;;10.90;99.90;;;;;;7291948;19;20182;-88
2023/09/24 05:51:18;;;;;;;9.83;3.03;;;10.90;99.90;;;;;;7288977;19;20225;-89
2023/09/24 05:53:52;;;;;;;11.90;3.20;;;10.90;99.90;;;;;;7287282;19;20199;-86
2023/09/24 05:56:21;;;;;;;10.23;3.27;;;10.90;99.90;;;;;;7285920;19;20214;-86
2023/09/24 05:58:46;;;;;;;9.33;3.23;;;10.80;99.90;;;;;;7285140;19;20190;-84
2023/09/24 06:01:15;;;;;;;8.10;3.20;;;10.80;99.90;;;;;;7283183;19;20207;-87
2023/09/24 06:03:41;;;;;;;11.83;3.07;;;10.80;99.90;;;;;;7285942;19;20218;-84
2023/09/24 06:06:16;;;;;;;9.23;3.17;;;10.80;99.90;;;;;;7292454;19;20309;-86
2023/09/24 06:08:43;;;;;;;10.97;3.20;;;10.90;99.90;;;;;;7285930;19;20205;-85
2023/09/24 06:11:38;;;;;;;10.90;3.10;;;11.00;99.90;;;;;;7287878;19;20203;-85
2023/09/24 06:14:10;;;;;;;7.90;2.90;;;11.00;99.90;;;;;;7193681;19;2004442;-85
2023/09/24 06:16:42;;;;;;;9.53;2.60;;;11.10;99.90;;;;;;7295128;19;20197;-87
2023/09/24 06:19:10;;;;;;;10.97;2.97;;;11.20;99.90;;;;;;7287482;19;20209;-86
2023/09/24 06:21:36;;;;;;;11.37;3.43;;;11.30;99.90;;;;;;7284842;19;20645;-86
2023/09/24 06:24:02;;;;;;;9.63;2.87;;;11.30;99.90;;;;;;7285783;19;20189;-87
2023/09/24 06:26:38;;;;;;;11.93;3.37;;;11.40;99.90;;;;;;7286631;19;20185;-85
2023/09/24 06:29:25;;;;;;;8.37;2.20;;;12.20;99.90;;;;;;7291058;19;20187;-85
2023/09/24 06:31:52;;;;;;;11.67;2.33;;;13.30;99.90;;;;;;7294080;19;20194;-87
2023/09/24 06:34:26;;;;;;;7.07;2.03;;;14.60;99.90;;;;;;7296544;19;20192;-85
2023/09/24 06:36:52;;;;;;;5.87;1.93;;;15.50;99.90;;;;;;7290537;19;20215;-83
2023/09/24 06:39:22;;;;;;;10.77;2.30;;;16.60;99.90;;;;;;7292025;19;20186;-87
2023/09/24 06:41:50;;;;;;;9.40;2.20;;;17.70;99.90;;;;;;7294660;19;20209;-85
2023/09/24 06:44:25;;;;;;;7.30;2.37;;;17.90;99.90;;;;;;7289854;19;20200;-85
2023/09/24 06:46:53;;;;;;;10.47;2.60;;;18.10;99.90;;;;;;7290656;19;20189;-86
2023/09/24 06:49:21;;;;;;;7.97;2.47;;;18.90;99.90;;;;;;7286956;19;20183;-85
2023/09/24 06:51:53;;;;;;;8.93;2.07;;;19.90;99.90;;;;;;7287769;19;20189;-86
2023/09/24 06:54:19;;;;;;;9.53;2.30;;;19.90;99.90;;;;;;7310672;19;20230;-86
2023/09/24 06:56:45;;;;;;;7.73;2.37;;;20.90;99.90;;;;;;7310339;19;20196;-87
2023/09/24 06:59:13;;;;;;;7.40;2.73;;;22.30;99.90;;;;;;7310232;19;20200;-86
2023/09/24 07:01:38;;;;;;;6.73;2.53;;;22.70;99.90;;;;;;7308595;19;20283;-85
2023/09/24 07:04:07;;;;;;;8.93;2.53;;;22.80;99.90;;;;;;7308091;19;20192;-84
2023/09/24 07:06:33;;;;;;;9.77;2.60;;;23.20;99.90;;;;;;7305123;19;20200;-92
2023/09/24 07:09:07;;;;;;;8.63;2.57;;;24.10;99.90;;;;;;7301647;19;20189;-92
2023/09/24 07:11:38;;;;;;;8.27;2.50;;;24.60;99.90;;;;;;7304171;19;20193;-94
2023/09/24 07:14:05;;;;;;;7.67;2.67;;;25.40;99.90;;;;;;7307999;19;20197;-94
2023/09/24 07:16:31;;;;;;;8.40;2.40;;;25.50;99.90;;;;;;7306610;19;20197;-94
2023/09/24 07:19:01;;;;;;;7.25;2.47;;;25.40;99.90;;;;;;7307820;19;20192;-94
2023/09/24 07:21:29;;;;;;;7.70;2.53;;;26.00;99.90;;;;;;7301282;19;20213;-95
2023/09/24 07:23:57;;;;;;;6.63;2.40;;;25.50;99.90;;;;;;7301486;19;20216;-93
2023/09/24 07:26:24;;;;;;;9.60;2.22;;;26.60;99.90;;;;;;7315602;19;20192;-92
2023/09/24 07:28:53;;;;;;;7.90;2.28;;;27.70;97.20;;;;;;7293343;19;20246;-94
2023/09/24 07:31:25;;;;;;;8.75;2.22;;;28.10;93.40;;;;;;7291902;19;20189;-95
2023/09/24 07:33:55;;;;;;;4.88;1.73;;;28.20;93.50;;;;;;7294272;19;20209;-93
2023/09/24 07:36:25;;;;;;;8.77;1.65;;;27.80;91.50;;;;;;7294707;19;20189;-86
2023/09/24 07:38:51;;;;;;;6.68;1.88;;;28.00;92.50;;;;;;7293742;19;20181;-93
2023/09/24 07:41:23;;;;;;;9.85;1.80;;;28.30;91.20;;;;;;7292824;19;20242;-92
2023/09/24 07:43:55;;;;;;;6.75;1.70;;;28.10;90.70;;;;;;7291454;19;20189;-94
2023/09/24 07:46:26;;;;;;;6.30;1.75;;;28.10;90.40;;;;;;7293082;19;20272;-87
2023/09/24 07:48:54;;;;;;;4.63;1.70;;;26.60;92.30;;;;;;7317878;19;20200;-94
2023/09/24 07:51:30;;;;;;;8.00;1.92;;;26.70;93.30;;;;;;7188943;19;2019914;-93
2023/09/24 07:54:01;;;;;;;5.85;1.52;;;26.90;92.20;;;;;;7297058;19;20196;-94
2023/09/24 07:56:41;;;;;;;5.35;1.70;;;26.60;93.50;;;;;;7290861;19;20230;-86
2023/09/24 07:59:08;;;;;;;6.35;1.50;;;26.20;94.60;;;;;;7289939;19;20193;-86
2023/09/24 08:01:52;;;;;;;4.22;1.65;;;25.80;95.30;;;;;;7288371;19;20331;-85
2023/09/24 08:04:18;;;;;;;6.03;1.60;;;26.20;95.50;;;;;;7294780;19;20201;-93
2023/09/24 08:06:46;;;;;;;5.68;1.55;;;26.70;93.30;;;;;;7294591;19;20212;-85
2023/09/24 08:09:18;;;;;;;6.80;1.50;;;27.00;92.20;;;;;;7288895;19;20265;-85
2023/09/24 08:11:46;;;;;;;6.75;1.50;;;26.80;92.40;;;;;;7291622;19;20212;-85
2023/09/24 08:14:21;;;;;;;8.13;1.50;;;26.00;92.60;;;;;;7291770;19;20189;-87
2023/09/24 08:16:47;;;;;;;12.15;2.00;;;25.90;94.90;;;;;;7292019;19;20220;-92
2023/09/24 08:19:13;;;;;;;6.85;1.75;;;27.10;93.00;;;;;;7293443;19;20181;-91
2023/09/24 08:21:38;;;;;;;4.30;1.40;;;27.80;90.30;;;;;;7288822;19;20256;-86
2023/09/24 08:24:08;;;;;;;6.80;1.70;;;26.80;91.20;;;;;;7290531;19;20197;-92
2023/09/24 08:26:36;;;;;;;4.68;1.30;;;26.90;92.80;;;;;;7294178;19;20301;-92
2023/09/24 08:29:05;;;;;;;5.57;1.45;;;27.90;91.60;;;;;;7291248;19;20189;-92
2023/09/24 08:31:32;;;;;;;7.53;1.85;;;28.30;89.50;;;;;;7295826;19;20264;-93
2023/09/24 08:34:09;;;;;;;8.05;1.67;;;28.50;86.80;;;;;;7303923;19;20196;-92
2023/09/24 08:36:36;;;;;;;5.40;1.55;;;25.90;91.60;;;;;;7314154;19;20193;-93
2023/09/24 08:39:14;;;;;;;7.10;1.90;;;25.70;94.60;;;;;;7305402;19;20196;-86
2023/09/24 08:41:44;;;;;;;5.50;1.52;;;27.00;94.00;;;;;;7298658;19;20675;-86
2023/09/24 08:44:16;;;;;;;4.80;1.40;;;26.30;92.40;;;;;;7290644;19;20203;-85
2023/09/24 08:47:07;;;;;;;5.50;1.70;;;24.40;97.40;;;;;;7296273;19;20265;-93
2023/09/24 08:49:48;;;;;;;6.37;1.60;;;23.00;99.90;;;;;;7196392;19;2004462;-85
2023/09/24 08:52:20;;;;;;;5.40;1.50;;;21.90;99.90;;;;;;7293182;19;20225;-85
2023/09/24 08:54:55;;;;;;;4.23;1.43;;;21.20;99.90;;;;;;7291343;19;20190;-85
2023/09/24 08:57:21;;;;;;;7.50;1.63;;;20.20;99.90;;;;;;7290043;19;20200;-93
2023/09/24 08:59:48;;;;;;;4.40;1.30;;;19.60;99.90;;;;;;7290660;19;20202;-92
2023/09/24 09:02:19;;;;;;;6.23;1.80;;;19.40;99.90;;;;;;7288912;19;20675;-93
2023/09/24 09:04:52;;;;;;;5.90;1.60;;;19.10;99.90;;;;;;7289595;19;20201;-92
2023/09/24 09:07:18;;;;;;;6.07;1.80;;;19.10;99.90;;;;;;7289443;19;20202;-93
2023/09/24 09:09:59;;;;;;;6.67;1.80;;;19.10;99.90;;;;;;7290437;19;21061;-91
2023/09/24 09:12:26;;;;;;;7.90;2.00;;;18.90;99.90;;;;;;7288224;19;20655;-92
2023/09/24 09:14:58;;;;;;;5.53;1.47;;;18.90;99.90;;;;;;7317635;19;20607;-92
2023/09/24 09:17:41;;;;;;;7.73;1.97;;;19.00;99.90;;;;;;7295907;19;20180;-91
2023/09/24 09:20:09;;;;;;;6.17;1.53;;;18.90;99.90;;;;;;7192230;19;2004394;-92
2023/09/24 09:22:50;;;;;;;7.00;1.90;;;19.10;99.90;;;;;;7289817;19;20179;-92
2023/09/24 09:25:23;;;;;;;9.90;1.73;;;19.20;99.90;;;;;;7288745;19;20645;-92
2023/09/24 09:27:50;;;;;;;4.47;1.60;;;19.30;99.90;;;;;;7291340;19;20184;-85
2023/09/24 09:30:20;;;;;;;7.03;1.93;;;19.40;99.90;;;;;;7294697;19;20185;-91
2023/09/24 09:32:47;;;;;;;5.03;1.70;;;19.50;99.90;;;;;;7289744;19;20184;-85
2023/09/24 09:35:14;;;;;;;8.40;1.83;;;19.40;99.90;;;;;;7288233;19;20797;-85
2023/09/24 09:37:42;;;;;;;7.73;2.00;;;19.30;99.90;;;;;;7288436;19;20189;-91
2023/09/24 09:40:19;;;;;;;6.97;1.87;;;19.40;99.90;;;;;;7293088;19;20185;-89
2023/09/24 09:42:49;;;;;;;6.93;1.80;;;19.40;99.90;;;;;;7290376;19;20202;-85
2023/09/24 09:45:20;;;;;;;6.20;1.90;;;19.40;99.90;;;;;;7289896;19;20179;-91
2023/09/24 09:48:07;;;;;;;4.80;1.47;;;20.10;99.90;;;;;;7293115;19;20180;-85
2023/09/24 09:50:40;;;;;;;7.83;1.67;;;21.60;99.90;;;;;;7188192;19;2004437;-85
2023/09/24 09:53:14;;;;;;;7.17;1.70;;;22.90;99.90;;;;;;7289923;19;20191;-85
2023/09/24 09:55:40;;;;;;;5.30;1.60;;;23.50;99.90;;;;;;7289337;19;20687;-89
2023/09/24 09:58:07;;;;;;;7.60;1.50;;;23.60;99.90;;;;;;7290743;19;20189;-85
2023/09/24 10:00:33;;;;;;;5.20;1.50;;;24.00;99.90;;;;;;7284505;19;20180;-86
2023/09/24 10:03:00;;;;;;;6.03;1.50;;;24.80;99.90;;;;;;7284767;19;20189;-86
2023/09/24 10:05:39;;;;;;;5.80;1.73;;;24.90;99.90;;;;;;7284924;19;20675;-86
2023/09/24 10:08:39;;;;;;;6.25;1.33;;;25.50;99.90;;;;;;7285469;19;20205;-87
2023/09/24 10:11:10;;;;;;;5.78;1.60;;;26.70;98.10;;;;;;7183705;19;2004976;-86
2023/09/24 10:13:54;;;;;;;6.05;1.60;;;28.20;93.90;;;;;;7285245;19;20268;-87
2023/09/24 10:16:27;;;;;;;6.03;1.60;;;27.50;91.90;;;;;;7285489;19;20586;-87
2023/09/24 10:18:56;;;;;;;4.88;1.45;;;27.80;91.70;;;;;;7292814;19;20189;-86
2023/09/24 10:21:33;;;;;;;5.05;1.50;;;28.20;90.90;;;;;;7285740;19;20192;-87
2023/09/24 10:24:20;;;;;;;6.80;1.63;;;29.50;88.40;;;;;;7262282;19;20562;-87
2023/09/24 10:27:06;;;;;;;5.32;1.60;;;29.40;85.70;;;;;;7284772;19;20250;-87
2023/09/24 10:29:51;;;;;;;4.57;1.40;;;29.90;81.40;;;;;;7185709;19;2004494;-93
2023/09/24 10:32:58;;;;;;;7.25;1.73;;;30.30;79.60;;;;;;7291800;19;20651;-87
2023/09/24 10:35:27;;;;;;;3.42;1.25;;;28.20;79.20;;;;;;7187575;19;2004332;-95
2023/09/24 10:38:02;;;;;;;5.22;1.40;;;28.20;81.10;;;;;;7288600;19;20181;-95
2023/09/24 10:40:28;;;;;;;3.17;1.38;;;28.50;79.90;;;;;;7266875;19;20192;-92
2023/09/24 10:43:14;;;;;;;4.90;1.48;;;28.20;80.80;;;;;;7306877;19;20201;-93
2023/09/24 10:45:41;;;;;;;4.65;1.10;;;28.40;80.00;;;;;;7188204;19;2004424;-93
2023/09/24 10:48:07;;;;;;;4.93;1.02;;;28.50;79.20;;;;;;7290841;19;20200;-90
2023/09/24 10:50:37;;;;;;;5.35;1.40;;;27.50;78.40;;;;;;7294697;19;20207;-93
2023/09/24 10:53:03;;;;;;;4.47;1.33;;;27.00;85.40;;;;;;7298869;19;20189;-94
2023/09/24 10:55:34;;;;;;;4.20;1.30;;;27.40;89.60;;;;;;7296690;19;20195;-92
2023/09/24 10:58:14;;;;;;;6.63;1.40;;;28.60;85.10;;;;;;7292723;19;20189;-92
2023/09/24 11:00:43;;;;;;;5.13;1.38;;;28.90;80.70;;;;;;7295016;19;20196;-94
2023/09/24 11:03:14;;;;;;;4.22;1.30;;;29.60;80.00;;;;;;7294741;19;20196;-94
2023/09/24 11:05:39;;;;;;;4.43;1.42;;;29.60;76.60;;;;;;7298145;19;20189;-96
2023/09/24 11:08:09;;;;;;;3.20;1.30;;;29.70;77.80;;;;;;7298927;19;20192;-92
2023/09/24 11:10:36;;;;;;;3.08;1.20;;;30.10;77.60;;;;;;7310347;19;20232;-87
2023/09/24 11:13:05;;;;;;;5.05;1.73;;;30.60;75.30;;;;;;7305005;19;20176;-90
2023/09/24 11:15:33;;;;;;;5.43;1.23;;;30.70;74.50;;;;;;7310915;19;20237;-91
2023/09/24 11:17:59;;;;;;;4.50;1.40;;;31.20;72.70;;;;;;7317838;19;20185;-91
2023/09/24 11:20:30;;;;;;;3.65;1.20;;;30.70;68.60;;;;;;7331911;19;20189;-93
2023/09/24 11:23:09;;;;;;;3.85;1.20;;;28.90;72.10;;;;;;7327950;19;20206;-92
2023/09/24 11:25:36;;;;;;;4.78;1.20;;;27.50;76.10;;;;;;7323547;19;20192;-93
2023/09/24 11:28:03;;;;;;;5.30;1.30;;;26.70;78.20;;;;;;7319371;19;20181;-94
2023/09/24 11:30:49;;;;;;;3.10;1.35;;;26.40;80.30;;;;;;7307251;19;20189;-94
2023/09/24 11:33:23;;;;;;;3.13;1.20;;;26.50;80.10;;;;;;7304081;19;20186;-93
2023/09/24 11:35:55;;;;;;;3.80;1.30;;;26.10;82.00;;;;;;7303265;19;20192;-94
2023/09/24 11:38:32;;;;;;;4.57;1.10;;;26.40;81.90;;;;;;7301835;19;20388;-93
2023/09/24 11:41:12;;;;;;;5.03;1.13;;;25.60;82.10;;;;;;7275121;19;20659;-93
2023/09/24 11:43:39;;;;;;;5.22;1.20;;;26.40;84.00;;;;;;7293930;19;20192;-94
2023/09/24 11:46:35;;;;;;;5.82;1.20;;;27.20;80.00;;;;;;7294197;19;20196;-93
2023/09/24 11:49:11;;;;;;;3.80;1.20;;;26.20;77.60;;;;;;7189405;19;2004439;-94
2023/09/24 11:51:37;;;;;;;3.28;1.10;;;26.20;80.70;;;;;;7293655;19;20181;-94
2023/09/24 11:54:03;;;;;;;3.42;1.10;;;26.50;79.80;;;;;;7293454;19;20378;-92
2023/09/24 11:56:31;;;;;;;3.85;1.17;;;26.70;76.90;;;;;;7293953;19;20189;-93
2023/09/24 11:58:59;;;;;;;4.05;1.17;;;26.20;78.70;;;;;;7290719;19;20558;-92
2023/09/24 12:01:26;;;;;;;3.97;1.10;;;26.40;79.20;;;;;;7314170;19;20200;-92
2023/09/24 12:03:53;;;;;;;3.90;1.08;;;26.00;82.20;;;;;;7308179;19;20218;-93
2023/09/24 12:06:20;;;;;;;3.60;1.00;;;27.00;82.40;;;;;;7293341;19;20210;-94
2023/09/24 12:08:46;;;;;;;2.90;1.08;;;28.10;78.50;;;;;;7292885;19;20204;-92
2023/09/24 12:11:12;;;;;;;4.53;1.45;;;28.60;75.40;;;;;;7292952;19;20189;-94
2023/09/24 12:13:38;;;;;;;5.10;1.40;;;28.70;74.10;;;;;;7293386;19;20236;-93
2023/09/24 12:16:03;;;;;;;3.03;1.20;;;28.30;73.30;;;;;;7292328;19;20296;-93
2023/09/24 12:18:29;;;;;;;4.05;1.10;;;28.90;72.60;;;;;;7291865;19;20241;-92
2023/09/24 12:20:57;;;;;;;3.95;1.25;;;28.70;72.30;;;;;;7313767;19;20202;-93
2023/09/24 12:23:22;;;;;;;4.13;1.05;;;28.30;72.10;;;;;;7312893;19;20197;-93
2023/09/24 12:25:48;;;;;;;4.32;1.20;;;28.00;74.40;;;;;;7293046;19;20256;-92
2023/09/24 12:28:15;;;;;;;2.83;1.20;;;27.60;73.80;;;;;;7291722;19;21936;-92
2023/09/24 12:30:42;;;;;;;2.72;1.30;;;27.40;75.70;;;;;;7288552;19;20208;-92
2023/09/24 12:33:07;;;;;;;3.58;1.02;;;26.90;76.40;;;;;;7292660;19;20194;-91
2023/09/24 12:35:37;;;;;;;6.00;1.23;;;26.10;77.40;;;;;;7291861;19;20218;-93
2023/09/24 12:38:03;;;;;;;3.42;1.15;;;26.70;79.60;;;;;;7290233;19;20202;-92
2023/09/24 12:40:29;;;;;;;2.42;0.98;;;26.30;77.40;;;;;;7291841;19;20181;-92
2023/09/24 12:42:55;;;;;;;6.03;0.95;;;26.00;76.60;;;;;;7312593;19;20181;-92
2023/09/24 12:45:22;;;;;;;3.40;1.10;;;25.40;77.80;;;;;;7291675;19;20214;-92
2023/09/24 12:47:50;;;;;;;4.32;1.20;;;25.00;80.10;;;;;;7291220;19;20200;-93
2023/09/24 12:50:23;;;;;;;3.78;1.17;;;25.00;85.50;;;;;;7295512;19;20201;-92
2023/09/24 12:52:48;;;;;;;4.87;1.30;;;24.40;83.80;;;;;;7302296;19;20594;-93
2023/09/24 12:55:16;;;;;;;5.63;1.37;;;24.00;86.90;;;;;;7296711;19;20189;-92
2023/09/24 12:57:44;;;;;;;3.60;1.00;;;23.60;90.30;;;;;;7298267;19;20188;-92
2023/09/24 13:00:10;;;;;;;6.37;1.20;;;23.50;90.90;;;;;;7299159;19;20184;-93
2023/09/24 13:02:48;;;;;;;4.00;1.00;;;23.40;91.20;;;;;;7310250;19;20228;-91